sensor_id;sensor_type;location;lat;lon;timestamp;P1;durP1;ratioP1;P2;durP2;ratioP2
21822;SDS011;11074;48.596;9.238;2023-04-08T00:02:09;7.07;;;6.00;;
21822;SDS011;11074;48.596;9.238;2023-04-08T00:04:35;9.00;;;6.35;;
21822;SDS011;11074;48.596;9.238;2023-04-08T00:07:01;8.38;;;6.40;;
21822;SDS011;11074;48.596;9.238;2023-04-08T00:09:26;8.25;;;6.95;;
21822;SDS011;11074;48.596;9.238;2023-04-08T00:11:52;9.05;;;6.03;;
21822;SDS011;11074;48.596;9.238;2023-04-08T00:14:18;9.35;;;6.47;;
21822;SDS011;11074;48.596;9.238;2023-04-08T00:16:43;8.52;;;6.45;;
21822;SDS011;11074;48.596;9.238;2023-04-08T00:19:09;8.13;;;6.50;;
21822;SDS011;11074;48.596;9.238;2023-04-08T00:21:35;9.30;;;6.65;;
21822;SDS011;11074;48.596;9.238;2023-04-08T00:24:01;9.75;;;6.22;;
21822;SDS011;11074;48.596;9.238;2023-04-08T00:26:26;8.80;;;6.78;;
21822;SDS011;11074;48.596;9.238;2023-04-08T00:28:52;8.57;;;6.38;;
21822;SDS011;11074;48.596;9.238;2023-04-08T00:31:18;8.25;;;6.57;;
21822;SDS011;11074;48.596;9.238;2023-04-08T00:33:43;8.25;;;6.38;;
21822;SDS011;11074;48.596;9.238;2023-04-08T00:36:09;9.80;;;7.28;;
21822;SDS011;11074;48.596;9.238;2023-04-08T00:38:35;8.48;;;6.18;;
21822;SDS011;11074;48.596;9.238;2023-04-08T00:41:01;8.60;;;6.65;;
21822;SDS011;11074;48.596;9.238;2023-04-08T00:43:26;9.38;;;6.70;;
21822;SDS011;11074;48.596;9.238;2023-04-08T00:45:52;10.02;;;7.70;;
21822;SDS011;11074;48.596;9.238;2023-04-08T00:48:18;8.25;;;6.82;;
21822;SDS011;11074;48.596;9.238;2023-04-08T00:50:43;8.02;;;6.97;;
21822;SDS011;11074;48.596;9.238;2023-04-08T00:53:11;10.93;;;7.13;;
21822;SDS011;11074;48.596;9.238;2023-04-08T00:55:41;9.35;;;6.60;;
21822;SDS011;11074;48.596;9.238;2023-04-08T00:58:06;8.93;;;6.55;;
21822;SDS011;11074;48.596;9.238;2023-04-08T01:00:32;10.15;;;7.20;;
21822;SDS011;11074;48.596;9.238;2023-04-08T01:03:13;9.55;;;7.68;;
21822;SDS011;11074;48.596;9.238;2023-04-08T01:05:53;9.30;;;7.35;;
21822;SDS011;11074;48.596;9.238;2023-04-08T01:08:26;11.07;;;7.32;;
21822;SDS011;11074;48.596;9.238;2023-04-08T01:10:57;10.55;;;7.80;;
21822;SDS011;11074;48.596;9.238;2023-04-08T01:13:27;8.88;;;6.72;;
21822;SDS011;11074;48.596;9.238;2023-04-08T01:16:01;9.13;;;7.72;;
21822;SDS011;11074;48.596;9.238;2023-04-08T01:18:26;10.43;;;7.40;;
21822;SDS011;11074;48.596;9.238;2023-04-08T01:20:55;8.65;;;7.15;;
21822;SDS011;11074;48.596;9.238;2023-04-08T01:23:41;9.35;;;7.45;;
21822;SDS011;11074;48.596;9.238;2023-04-08T01:26:23;11.52;;;7.93;;
21822;SDS011;11074;48.596;9.238;2023-04-08T01:28:51;12.75;;;8.07;;
21822;SDS011;11074;48.596;9.238;2023-04-08T01:31:20;11.18;;;7.85;;
21822;SDS011;11074;48.596;9.238;2023-04-08T01:33:49;10.88;;;7.95;;
21822;SDS011;11074;48.596;9.238;2023-04-08T01:36:16;11.07;;;7.57;;
21822;SDS011;11074;48.596;9.238;2023-04-08T01:38:44;11.48;;;8.63;;
21822;SDS011;11074;48.596;9.238;2023-04-08T01:41:12;10.55;;;8.35;;
21822;SDS011;11074;48.596;9.238;2023-04-08T01:43:40;11.55;;;9.23;;
21822;SDS011;11074;48.596;9.238;2023-04-08T01:46:09;10.57;;;8.68;;
21822;SDS011;11074;48.596;9.238;2023-04-08T01:48:37;11.93;;;8.80;;
21822;SDS011;11074;48.596;9.238;2023-04-08T01:51:04;12.65;;;9.27;;
21822;SDS011;11074;48.596;9.238;2023-04-08T01:53:31;13.18;;;9.80;;
21822;SDS011;11074;48.596;9.238;2023-04-08T01:56:00;14.57;;;9.77;;
21822;SDS011;11074;48.596;9.238;2023-04-08T01:58:40;14.57;;;10.55;;
21822;SDS011;11074;48.596;9.238;2023-04-08T02:01:16;14.02;;;10.25;;
21822;SDS011;11074;48.596;9.238;2023-04-08T02:03:46;14.45;;;10.15;;
21822;SDS011;11074;48.596;9.238;2023-04-08T02:06:16;14.02;;;10.13;;
21822;SDS011;11074;48.596;9.238;2023-04-08T02:08:41;15.05;;;10.38;;
21822;SDS011;11074;48.596;9.238;2023-04-08T02:11:07;14.07;;;10.27;;
21822;SDS011;11074;48.596;9.238;2023-04-08T02:13:34;15.25;;;11.77;;
21822;SDS011;11074;48.596;9.238;2023-04-08T02:16:03;13.73;;;10.68;;
21822;SDS011;11074;48.596;9.238;2023-04-08T02:18:44;15.77;;;10.93;;
21822;SDS011;11074;48.596;9.238;2023-04-08T02:21:30;12.90;;;9.85;;
21822;SDS011;11074;48.596;9.238;2023-04-08T02:24:08;15.85;;;11.13;;
21822;SDS011;11074;48.596;9.238;2023-04-08T02:26:37;14.40;;;10.18;;
21822;SDS011;11074;48.596;9.238;2023-04-08T02:29:09;17.00;;;11.43;;
21822;SDS011;11074;48.596;9.238;2023-04-08T02:31:40;15.40;;;11.07;;
21822;SDS011;11074;48.596;9.238;2023-04-08T02:34:08;14.57;;;10.73;;
21822;SDS011;11074;48.596;9.238;2023-04-08T02:36:35;16.25;;;11.25;;
21822;SDS011;11074;48.596;9.238;2023-04-08T02:39:03;15.07;;;10.32;;
21822;SDS011;11074;48.596;9.238;2023-04-08T02:41:29;15.25;;;11.57;;
21822;SDS011;11074;48.596;9.238;2023-04-08T02:43:55;13.98;;;10.55;;
21822;SDS011;11074;48.596;9.238;2023-04-08T02:46:21;14.48;;;10.80;;
21822;SDS011;11074;48.596;9.238;2023-04-08T02:48:47;17.25;;;11.30;;
21822;SDS011;11074;48.596;9.238;2023-04-08T02:51:13;15.95;;;10.88;;
21822;SDS011;11074;48.596;9.238;2023-04-08T02:53:39;16.60;;;11.23;;
21822;SDS011;11074;48.596;9.238;2023-04-08T02:56:05;13.95;;;10.55;;
21822;SDS011;11074;48.596;9.238;2023-04-08T02:58:33;15.63;;;10.70;;
21822;SDS011;11074;48.596;9.238;2023-04-08T03:00:59;14.85;;;10.88;;
21822;SDS011;11074;48.596;9.238;2023-04-08T03:03:25;14.57;;;10.27;;
21822;SDS011;11074;48.596;9.238;2023-04-08T03:05:55;13.93;;;10.75;;
21822;SDS011;11074;48.596;9.238;2023-04-08T03:08:22;15.27;;;10.93;;
21822;SDS011;11074;48.596;9.238;2023-04-08T03:10:48;14.70;;;10.77;;
21822;SDS011;11074;48.596;9.238;2023-04-08T03:13:15;18.98;;;10.95;;
21822;SDS011;11074;48.596;9.238;2023-04-08T03:15:41;15.13;;;10.52;;
21822;SDS011;11074;48.596;9.238;2023-04-08T03:18:07;14.55;;;10.90;;
21822;SDS011;11074;48.596;9.238;2023-04-08T03:20:33;15.02;;;10.77;;
21822;SDS011;11074;48.596;9.238;2023-04-08T03:22:59;14.73;;;11.15;;
21822;SDS011;11074;48.596;9.238;2023-04-08T03:25:24;15.07;;;10.85;;
21822;SDS011;11074;48.596;9.238;2023-04-08T03:27:50;13.30;;;10.00;;
21822;SDS011;11074;48.596;9.238;2023-04-08T03:30:16;14.82;;;10.57;;
21822;SDS011;11074;48.596;9.238;2023-04-08T03:32:42;14.48;;;10.27;;
21822;SDS011;11074;48.596;9.238;2023-04-08T03:35:08;14.50;;;10.50;;
21822;SDS011;11074;48.596;9.238;2023-04-08T03:37:33;13.73;;;9.52;;
21822;SDS011;11074;48.596;9.238;2023-04-08T03:39:59;13.13;;;9.88;;
21822;SDS011;11074;48.596;9.238;2023-04-08T03:42:25;12.15;;;9.65;;
21822;SDS011;11074;48.596;9.238;2023-04-08T03:44:51;12.70;;;9.60;;
21822;SDS011;11074;48.596;9.238;2023-04-08T03:47:16;13.35;;;10.02;;
21822;SDS011;11074;48.596;9.238;2023-04-08T03:49:42;15.48;;;10.02;;
21822;SDS011;11074;48.596;9.238;2023-04-08T03:52:08;12.48;;;9.30;;
21822;SDS011;11074;48.596;9.238;2023-04-08T03:54:33;13.32;;;9.75;;
21822;SDS011;11074;48.596;9.238;2023-04-08T03:56:59;13.95;;;9.95;;
21822;SDS011;11074;48.596;9.238;2023-04-08T03:59:25;15.50;;;10.30;;
21822;SDS011;11074;48.596;9.238;2023-04-08T04:01:50;14.23;;;9.70;;
21822;SDS011;11074;48.596;9.238;2023-04-08T04:04:17;12.98;;;9.70;;
21822;SDS011;11074;48.596;9.238;2023-04-08T04:06:43;14.35;;;9.43;;
21822;SDS011;11074;48.596;9.238;2023-04-08T04:09:09;13.85;;;9.52;;
21822;SDS011;11074;48.596;9.238;2023-04-08T04:11:35;12.05;;;9.20;;
21822;SDS011;11074;48.596;9.238;2023-04-08T04:14:01;12.98;;;9.23;;
21822;SDS011;11074;48.596;9.238;2023-04-08T04:16:27;13.63;;;9.48;;
21822;SDS011;11074;48.596;9.238;2023-04-08T04:18:53;12.95;;;9.52;;
21822;SDS011;11074;48.596;9.238;2023-04-08T04:21:19;13.48;;;9.57;;
21822;SDS011;11074;48.596;9.238;2023-04-08T04:23:44;11.75;;;8.45;;
21822;SDS011;11074;48.596;9.238;2023-04-08T04:26:10;11.40;;;9.10;;
21822;SDS011;11074;48.596;9.238;2023-04-08T04:28:36;12.48;;;8.70;;
21822;SDS011;11074;48.596;9.238;2023-04-08T04:31:03;14.93;;;9.55;;
21822;SDS011;11074;48.596;9.238;2023-04-08T04:33:29;12.20;;;9.20;;
21822;SDS011;11074;48.596;9.238;2023-04-08T04:35:55;13.20;;;8.88;;
21822;SDS011;11074;48.596;9.238;2023-04-08T04:38:21;11.57;;;8.48;;
21822;SDS011;11074;48.596;9.238;2023-04-08T04:40:47;13.23;;;9.82;;
21822;SDS011;11074;48.596;9.238;2023-04-08T04:43:12;14.15;;;9.90;;
21822;SDS011;11074;48.596;9.238;2023-04-08T04:45:38;12.70;;;9.23;;
21822;SDS011;11074;48.596;9.238;2023-04-08T04:48:04;13.32;;;9.32;;
21822;SDS011;11074;48.596;9.238;2023-04-08T04:50:30;10.85;;;8.57;;
21822;SDS011;11074;48.596;9.238;2023-04-08T04:52:56;13.43;;;9.07;;
21822;SDS011;11074;48.596;9.238;2023-04-08T04:55:22;12.57;;;8.75;;
21822;SDS011;11074;48.596;9.238;2023-04-08T04:57:48;12.55;;;8.88;;
21822;SDS011;11074;48.596;9.238;2023-04-08T05:00:14;13.88;;;9.82;;
21822;SDS011;11074;48.596;9.238;2023-04-08T05:02:41;12.57;;;9.13;;
21822;SDS011;11074;48.596;9.238;2023-04-08T05:05:12;14.38;;;9.98;;
21822;SDS011;11074;48.596;9.238;2023-04-08T05:07:37;12.88;;;9.38;;
21822;SDS011;11074;48.596;9.238;2023-04-08T05:10:04;12.55;;;8.63;;
21822;SDS011;11074;48.596;9.238;2023-04-08T05:12:30;13.05;;;9.05;;
21822;SDS011;11074;48.596;9.238;2023-04-08T05:14:57;13.23;;;8.93;;
21822;SDS011;11074;48.596;9.238;2023-04-08T05:17:26;18.25;;;10.23;;
21822;SDS011;11074;48.596;9.238;2023-04-08T05:19:51;13.98;;;10.15;;
21822;SDS011;11074;48.596;9.238;2023-04-08T05:22:20;13.30;;;9.40;;
21822;SDS011;11074;48.596;9.238;2023-04-08T05:24:46;14.38;;;10.00;;
21822;SDS011;11074;48.596;9.238;2023-04-08T05:27:11;13.00;;;9.27;;
21822;SDS011;11074;48.596;9.238;2023-04-08T05:29:37;14.88;;;10.82;;
21822;SDS011;11074;48.596;9.238;2023-04-08T05:32:03;15.18;;;10.57;;
21822;SDS011;11074;48.596;9.238;2023-04-08T05:34:30;13.85;;;9.95;;
21822;SDS011;11074;48.596;9.238;2023-04-08T05:36:59;14.20;;;10.13;;
21822;SDS011;11074;48.596;9.238;2023-04-08T05:39:27;16.13;;;10.10;;
21822;SDS011;11074;48.596;9.238;2023-04-08T05:41:56;13.90;;;10.27;;
21822;SDS011;11074;48.596;9.238;2023-04-08T05:44:21;15.10;;;10.90;;
21822;SDS011;11074;48.596;9.238;2023-04-08T05:46:47;17.65;;;10.45;;
21822;SDS011;11074;48.596;9.238;2023-04-08T05:49:13;15.88;;;10.73;;
21822;SDS011;11074;48.596;9.238;2023-04-08T05:51:39;14.63;;;10.88;;
21822;SDS011;11074;48.596;9.238;2023-04-08T05:54:05;13.40;;;9.75;;
21822;SDS011;11074;48.596;9.238;2023-04-08T05:56:31;14.00;;;9.98;;
21822;SDS011;11074;48.596;9.238;2023-04-08T05:58:57;14.07;;;10.02;;
21822;SDS011;11074;48.596;9.238;2023-04-08T06:01:22;15.40;;;10.40;;
21822;SDS011;11074;48.596;9.238;2023-04-08T06:03:49;13.88;;;10.13;;
21822;SDS011;11074;48.596;9.238;2023-04-08T06:06:16;14.10;;;9.57;;
21822;SDS011;11074;48.596;9.238;2023-04-08T06:08:42;15.40;;;10.52;;
21822;SDS011;11074;48.596;9.238;2023-04-08T06:11:08;15.23;;;10.35;;
21822;SDS011;11074;48.596;9.238;2023-04-08T06:13:33;14.57;;;10.80;;
21822;SDS011;11074;48.596;9.238;2023-04-08T06:16:09;14.60;;;10.65;;
21822;SDS011;11074;48.596;9.238;2023-04-08T06:18:41;14.38;;;10.68;;
21822;SDS011;11074;48.596;9.238;2023-04-08T06:21:07;15.05;;;10.35;;
21822;SDS011;11074;48.596;9.238;2023-04-08T06:23:34;15.27;;;10.85;;
21822;SDS011;11074;48.596;9.238;2023-04-08T06:26:00;14.52;;;10.68;;
21822;SDS011;11074;48.596;9.238;2023-04-08T06:28:27;14.45;;;10.52;;
21822;SDS011;11074;48.596;9.238;2023-04-08T06:30:54;14.90;;;10.82;;
21822;SDS011;11074;48.596;9.238;2023-04-08T06:33:20;15.65;;;10.80;;
21822;SDS011;11074;48.596;9.238;2023-04-08T06:35:46;14.05;;;10.75;;
21822;SDS011;11074;48.596;9.238;2023-04-08T06:38:12;15.75;;;10.90;;
21822;SDS011;11074;48.596;9.238;2023-04-08T06:40:38;14.50;;;10.77;;
21822;SDS011;11074;48.596;9.238;2023-04-08T06:43:04;14.55;;;10.07;;
21822;SDS011;11074;48.596;9.238;2023-04-08T06:45:31;16.55;;;10.25;;
21822;SDS011;11074;48.596;9.238;2023-04-08T06:47:58;14.80;;;9.55;;
21822;SDS011;11074;48.596;9.238;2023-04-08T06:50:24;14.30;;;9.57;;
21822;SDS011;11074;48.596;9.238;2023-04-08T06:52:50;14.57;;;9.75;;
21822;SDS011;11074;48.596;9.238;2023-04-08T06:55:16;12.80;;;8.75;;
21822;SDS011;11074;48.596;9.238;2023-04-08T06:57:41;13.95;;;9.02;;
21822;SDS011;11074;48.596;9.238;2023-04-08T07:00:07;12.57;;;8.60;;
21822;SDS011;11074;48.596;9.238;2023-04-08T07:02:34;13.63;;;8.52;;
21822;SDS011;11074;48.596;9.238;2023-04-08T07:04:59;13.10;;;8.82;;
21822;SDS011;11074;48.596;9.238;2023-04-08T07:07:25;11.75;;;8.18;;
21822;SDS011;11074;48.596;9.238;2023-04-08T07:09:51;12.90;;;9.38;;
21822;SDS011;11074;48.596;9.238;2023-04-08T07:12:17;12.55;;;9.45;;
21822;SDS011;11074;48.596;9.238;2023-04-08T07:14:42;12.75;;;8.43;;
21822;SDS011;11074;48.596;9.238;2023-04-08T07:17:08;12.70;;;9.15;;
21822;SDS011;11074;48.596;9.238;2023-04-08T07:19:34;12.63;;;8.93;;
21822;SDS011;11074;48.596;9.238;2023-04-08T07:22:00;12.77;;;9.02;;
21822;SDS011;11074;48.596;9.238;2023-04-08T07:24:26;11.52;;;8.27;;
21822;SDS011;11074;48.596;9.238;2023-04-08T07:26:52;10.80;;;8.15;;
21822;SDS011;11074;48.596;9.238;2023-04-08T07:29:19;12.82;;;9.13;;
21822;SDS011;11074;48.596;9.238;2023-04-08T07:31:45;12.30;;;9.02;;
21822;SDS011;11074;48.596;9.238;2023-04-08T07:34:10;11.90;;;8.75;;
21822;SDS011;11074;48.596;9.238;2023-04-08T07:36:36;12.48;;;8.52;;
21822;SDS011;11074;48.596;9.238;2023-04-08T07:39:02;10.65;;;8.02;;
21822;SDS011;11074;48.596;9.238;2023-04-08T07:41:28;10.85;;;8.25;;
21822;SDS011;11074;48.596;9.238;2023-04-08T07:43:54;13.93;;;9.40;;
21822;SDS011;11074;48.596;9.238;2023-04-08T07:46:20;13.27;;;9.65;;
21822;SDS011;11074;48.596;9.238;2023-04-08T07:48:45;12.27;;;9.40;;
21822;SDS011;11074;48.596;9.238;2023-04-08T07:51:11;12.73;;;9.30;;
21822;SDS011;11074;48.596;9.238;2023-04-08T07:53:37;11.65;;;9.30;;
21822;SDS011;11074;48.596;9.238;2023-04-08T07:56:09;14.20;;;9.75;;
21822;SDS011;11074;48.596;9.238;2023-04-08T07:58:36;12.05;;;8.65;;
21822;SDS011;11074;48.596;9.238;2023-04-08T08:01:02;13.02;;;8.82;;
21822;SDS011;11074;48.596;9.238;2023-04-08T08:03:28;11.57;;;9.07;;
21822;SDS011;11074;48.596;9.238;2023-04-08T08:05:53;11.32;;;7.93;;
21822;SDS011;11074;48.596;9.238;2023-04-08T08:08:19;10.35;;;8.35;;
21822;SDS011;11074;48.596;9.238;2023-04-08T08:10:45;11.75;;;8.57;;
21822;SDS011;11074;48.596;9.238;2023-04-08T08:13:10;10.30;;;8.02;;
21822;SDS011;11074;48.596;9.238;2023-04-08T08:15:40;12.68;;;8.40;;
21822;SDS011;11074;48.596;9.238;2023-04-08T08:18:06;11.23;;;8.35;;
21822;SDS011;11074;48.596;9.238;2023-04-08T08:20:32;12.10;;;8.82;;
21822;SDS011;11074;48.596;9.238;2023-04-08T08:23:00;11.95;;;8.93;;
21822;SDS011;11074;48.596;9.238;2023-04-08T08:25:26;11.52;;;9.00;;
21822;SDS011;11074;48.596;9.238;2023-04-08T08:27:51;10.60;;;8.52;;
21822;SDS011;11074;48.596;9.238;2023-04-08T08:30:17;10.60;;;8.55;;
21822;SDS011;11074;48.596;9.238;2023-04-08T08:32:45;11.35;;;8.88;;
21822;SDS011;11074;48.596;9.238;2023-04-08T08:35:11;12.00;;;8.85;;
21822;SDS011;11074;48.596;9.238;2023-04-08T08:37:36;10.43;;;8.20;;
21822;SDS011;11074;48.596;9.238;2023-04-08T08:40:02;12.95;;;9.20;;
21822;SDS011;11074;48.596;9.238;2023-04-08T08:42:28;12.75;;;9.18;;
21822;SDS011;11074;48.596;9.238;2023-04-08T08:44:54;12.63;;;9.45;;
21822;SDS011;11074;48.596;9.238;2023-04-08T08:47:20;12.38;;;9.52;;
21822;SDS011;11074;48.596;9.238;2023-04-08T08:49:46;12.13;;;9.05;;
21822;SDS011;11074;48.596;9.238;2023-04-08T08:52:15;12.50;;;9.32;;
21822;SDS011;11074;48.596;9.238;2023-04-08T08:54:42;13.32;;;8.93;;
21822;SDS011;11074;48.596;9.238;2023-04-08T08:57:16;12.13;;;9.40;;
21822;SDS011;11074;48.596;9.238;2023-04-08T08:59:44;13.45;;;9.80;;
21822;SDS011;11074;48.596;9.238;2023-04-08T09:02:24;12.85;;;10.00;;
21822;SDS011;11074;48.596;9.238;2023-04-08T09:04:56;14.68;;;10.50;;
21822;SDS011;11074;48.596;9.238;2023-04-08T09:07:24;13.63;;;10.25;;
21822;SDS011;11074;48.596;9.238;2023-04-08T09:09:53;13.82;;;10.38;;
21822;SDS011;11074;48.596;9.238;2023-04-08T09:12:21;13.73;;;10.40;;
21822;SDS011;11074;48.596;9.238;2023-04-08T09:14:48;13.88;;;10.00;;
21822;SDS011;11074;48.596;9.238;2023-04-08T09:17:14;14.63;;;10.52;;
21822;SDS011;11074;48.596;9.238;2023-04-08T09:20:02;15.02;;;10.70;;
21822;SDS011;11074;48.596;9.238;2023-04-08T09:22:53;13.98;;;10.10;;
21822;SDS011;11074;48.596;9.238;2023-04-08T09:25:29;13.52;;;10.52;;
21822;SDS011;11074;48.596;9.238;2023-04-08T09:27:56;13.00;;;10.55;;
21822;SDS011;11074;48.596;9.238;2023-04-08T09:30:23;13.85;;;11.07;;
21822;SDS011;11074;48.596;9.238;2023-04-08T09:32:52;14.38;;;10.60;;
21822;SDS011;11074;48.596;9.238;2023-04-08T09:35:20;15.02;;;11.00;;
21822;SDS011;11074;48.596;9.238;2023-04-08T09:37:47;14.40;;;10.50;;
21822;SDS011;11074;48.596;9.238;2023-04-08T09:40:15;14.40;;;10.57;;
21822;SDS011;11074;48.596;9.238;2023-04-08T09:42:43;13.52;;;10.73;;
21822;SDS011;11074;48.596;9.238;2023-04-08T09:45:16;13.95;;;11.05;;
21822;SDS011;11074;48.596;9.238;2023-04-08T09:47:46;14.40;;;10.68;;
21822;SDS011;11074;48.596;9.238;2023-04-08T09:50:27;14.10;;;11.15;;
21822;SDS011;11074;48.596;9.238;2023-04-08T09:53:00;14.15;;;10.68;;
21822;SDS011;11074;48.596;9.238;2023-04-08T09:55:36;15.98;;;11.10;;
21822;SDS011;11074;48.596;9.238;2023-04-08T09:58:14;14.15;;;10.63;;
21822;SDS011;11074;48.596;9.238;2023-04-08T10:00:47;14.50;;;10.80;;
21822;SDS011;11074;48.596;9.238;2023-04-08T10:06:03;13.05;;;10.23;;
21822;SDS011;11074;48.596;9.238;2023-04-08T10:08:32;13.48;;;10.70;;
21822;SDS011;11074;48.596;9.238;2023-04-08T10:10:59;14.30;;;11.07;;
21822;SDS011;11074;48.596;9.238;2023-04-08T10:13:26;15.18;;;10.73;;
21822;SDS011;11074;48.596;9.238;2023-04-08T10:16:16;15.63;;;10.70;;
21822;SDS011;11074;48.596;9.238;2023-04-08T10:18:51;11.90;;;9.82;;
21822;SDS011;11074;48.596;9.238;2023-04-08T10:23:56;15.77;;;11.00;;
21822;SDS011;11074;48.596;9.238;2023-04-08T10:26:32;12.85;;;10.32;;
21822;SDS011;11074;48.596;9.238;2023-04-08T10:31:45;15.05;;;11.05;;
21822;SDS011;11074;48.596;9.238;2023-04-08T10:34:19;14.50;;;11.13;;
21822;SDS011;11074;48.596;9.238;2023-04-08T10:36:48;13.80;;;10.90;;
21822;SDS011;11074;48.596;9.238;2023-04-08T10:39:15;12.88;;;10.40;;
21822;SDS011;11074;48.596;9.238;2023-04-08T10:41:45;14.13;;;11.15;;
21822;SDS011;11074;48.596;9.238;2023-04-08T10:44:15;12.93;;;10.18;;
21822;SDS011;11074;48.596;9.238;2023-04-08T10:46:46;13.20;;;10.45;;
21822;SDS011;11074;48.596;9.238;2023-04-08T10:49:13;13.93;;;10.98;;
21822;SDS011;11074;48.596;9.238;2023-04-08T10:51:41;13.30;;;10.63;;
21822;SDS011;11074;48.596;9.238;2023-04-08T10:54:09;12.95;;;10.57;;
21822;SDS011;11074;48.596;9.238;2023-04-08T10:56:47;13.75;;;10.82;;
21822;SDS011;11074;48.596;9.238;2023-04-08T10:59:16;14.07;;;10.50;;
21822;SDS011;11074;48.596;9.238;2023-04-08T11:01:51;13.73;;;10.40;;
21822;SDS011;11074;48.596;9.238;2023-04-08T11:04:17;15.93;;;11.13;;
21822;SDS011;11074;48.596;9.238;2023-04-08T11:06:45;13.38;;;10.70;;
21822;SDS011;11074;48.596;9.238;2023-04-08T11:09:12;12.50;;;10.30;;
21822;SDS011;11074;48.596;9.238;2023-04-08T11:11:43;14.98;;;9.88;;
21822;SDS011;11074;48.596;9.238;2023-04-08T11:14:10;12.60;;;9.82;;
21822;SDS011;11074;48.596;9.238;2023-04-08T11:16:37;12.52;;;9.93;;
21822;SDS011;11074;48.596;9.238;2023-04-08T11:19:04;13.30;;;10.15;;
21822;SDS011;11074;48.596;9.238;2023-04-08T11:21:31;13.80;;;10.68;;
21822;SDS011;11074;48.596;9.238;2023-04-08T11:23:59;13.52;;;10.57;;
21822;SDS011;11074;48.596;9.238;2023-04-08T11:26:25;14.80;;;10.38;;
21822;SDS011;11074;48.596;9.238;2023-04-08T11:28:52;12.32;;;10.65;;
21822;SDS011;11074;48.596;9.238;2023-04-08T11:31:21;14.52;;;9.85;;
21822;SDS011;11074;48.596;9.238;2023-04-08T11:33:47;15.75;;;10.90;;
21822;SDS011;11074;48.596;9.238;2023-04-08T11:36:16;12.90;;;10.23;;
21822;SDS011;11074;48.596;9.238;2023-04-08T11:38:42;13.35;;;10.48;;
21822;SDS011;11074;48.596;9.238;2023-04-08T11:41:09;12.77;;;9.85;;
21822;SDS011;11074;48.596;9.238;2023-04-08T11:43:36;13.63;;;10.23;;
21822;SDS011;11074;48.596;9.238;2023-04-08T11:46:11;13.45;;;9.48;;
21822;SDS011;11074;48.596;9.238;2023-04-08T11:48:37;13.05;;;10.38;;
21822;SDS011;11074;48.596;9.238;2023-04-08T11:51:06;12.70;;;10.10;;
21822;SDS011;11074;48.596;9.238;2023-04-08T11:53:33;13.68;;;10.25;;
21822;SDS011;11074;48.596;9.238;2023-04-08T11:56:15;12.77;;;10.02;;
21822;SDS011;11074;48.596;9.238;2023-04-08T11:58:46;12.77;;;9.80;;
21822;SDS011;11074;48.596;9.238;2023-04-08T12:01:12;12.02;;;9.38;;
21822;SDS011;11074;48.596;9.238;2023-04-08T12:03:38;12.93;;;9.75;;
21822;SDS011;11074;48.596;9.238;2023-04-08T12:06:17;14.02;;;10.25;;
21822;SDS011;11074;48.596;9.238;2023-04-08T12:08:42;13.25;;;10.43;;
21822;SDS011;11074;48.596;9.238;2023-04-08T12:11:08;12.85;;;10.23;;
21822;SDS011;11074;48.596;9.238;2023-04-08T12:13:35;14.98;;;10.15;;
21822;SDS011;11074;48.596;9.238;2023-04-08T12:16:01;13.68;;;10.68;;
21822;SDS011;11074;48.596;9.238;2023-04-08T12:18:26;14.45;;;10.25;;
21822;SDS011;11074;48.596;9.238;2023-04-08T12:20:52;13.02;;;9.75;;
21822;SDS011;11074;48.596;9.238;2023-04-08T12:23:18;13.25;;;10.05;;
21822;SDS011;11074;48.596;9.238;2023-04-08T12:25:44;15.30;;;9.88;;
21822;SDS011;11074;48.596;9.238;2023-04-08T12:28:10;14.57;;;10.15;;
21822;SDS011;11074;48.596;9.238;2023-04-08T12:30:36;13.35;;;10.20;;
21822;SDS011;11074;48.596;9.238;2023-04-08T12:33:03;14.43;;;9.95;;
21822;SDS011;11074;48.596;9.238;2023-04-08T12:35:28;13.93;;;9.85;;
21822;SDS011;11074;48.596;9.238;2023-04-08T12:37:55;13.55;;;10.07;;
21822;SDS011;11074;48.596;9.238;2023-04-08T12:40:20;12.60;;;9.07;;
21822;SDS011;11074;48.596;9.238;2023-04-08T12:42:46;11.77;;;9.60;;
21822;SDS011;11074;48.596;9.238;2023-04-08T12:45:12;13.75;;;10.43;;
21822;SDS011;11074;48.596;9.238;2023-04-08T12:47:38;11.40;;;9.43;;
21822;SDS011;11074;48.596;9.238;2023-04-08T12:50:03;12.90;;;9.52;;
21822;SDS011;11074;48.596;9.238;2023-04-08T12:52:30;12.32;;;9.52;;
21822;SDS011;11074;48.596;9.238;2023-04-08T12:54:55;12.38;;;9.07;;
21822;SDS011;11074;48.596;9.238;2023-04-08T12:57:21;13.43;;;9.65;;
21822;SDS011;11074;48.596;9.238;2023-04-08T12:59:47;11.38;;;9.27;;
21822;SDS011;11074;48.596;9.238;2023-04-08T13:02:12;13.35;;;9.73;;
21822;SDS011;11074;48.596;9.238;2023-04-08T13:04:38;12.65;;;9.98;;
21822;SDS011;11074;48.596;9.238;2023-04-08T13:07:04;13.02;;;9.50;;
21822;SDS011;11074;48.596;9.238;2023-04-08T13:09:31;12.65;;;9.63;;
21822;SDS011;11074;48.596;9.238;2023-04-08T13:11:57;12.25;;;9.98;;
21822;SDS011;11074;48.596;9.238;2023-04-08T13:14:23;11.55;;;9.55;;
21822;SDS011;11074;48.596;9.238;2023-04-08T13:16:49;13.27;;;10.02;;
21822;SDS011;11074;48.596;9.238;2023-04-08T13:19:15;13.27;;;10.73;;
21822;SDS011;11074;48.596;9.238;2023-04-08T13:21:41;12.85;;;10.23;;
21822;SDS011;11074;48.596;9.238;2023-04-08T13:24:06;13.02;;;10.75;;
21822;SDS011;11074;48.596;9.238;2023-04-08T13:26:32;13.80;;;10.65;;
21822;SDS011;11074;48.596;9.238;2023-04-08T13:28:57;13.63;;;10.40;;
21822;SDS011;11074;48.596;9.238;2023-04-08T13:31:23;13.15;;;10.48;;
21822;SDS011;11074;48.596;9.238;2023-04-08T13:33:49;12.00;;;10.27;;
21822;SDS011;11074;48.596;9.238;2023-04-08T13:36:15;14.68;;;10.57;;
21822;SDS011;11074;48.596;9.238;2023-04-08T13:38:41;12.45;;;9.98;;
21822;SDS011;11074;48.596;9.238;2023-04-08T13:41:07;13.43;;;10.95;;
21822;SDS011;11074;48.596;9.238;2023-04-08T13:43:33;13.40;;;9.98;;
21822;SDS011;11074;48.596;9.238;2023-04-08T13:45:58;12.90;;;10.27;;
21822;SDS011;11074;48.596;9.238;2023-04-08T13:48:24;12.75;;;10.15;;
21822;SDS011;11074;48.596;9.238;2023-04-08T13:50:50;13.02;;;10.82;;
21822;SDS011;11074;48.596;9.238;2023-04-08T13:53:15;15.40;;;11.40;;
21822;SDS011;11074;48.596;9.238;2023-04-08T13:55:41;14.35;;;11.20;;
21822;SDS011;11074;48.596;9.238;2023-04-08T13:58:07;14.68;;;11.00;;
21822;SDS011;11074;48.596;9.238;2023-04-08T14:00:32;14.30;;;11.43;;
21822;SDS011;11074;48.596;9.238;2023-04-08T14:02:58;16.38;;;11.35;;
21822;SDS011;11074;48.596;9.238;2023-04-08T14:05:24;14.45;;;10.35;;
21822;SDS011;11074;48.596;9.238;2023-04-08T14:07:49;12.98;;;10.32;;
21822;SDS011;11074;48.596;9.238;2023-04-08T14:10:15;14.70;;;10.60;;
21822;SDS011;11074;48.596;9.238;2023-04-08T14:12:41;13.35;;;10.40;;
21822;SDS011;11074;48.596;9.238;2023-04-08T14:15:07;12.60;;;9.35;;
21822;SDS011;11074;48.596;9.238;2023-04-08T14:17:33;12.95;;;10.25;;
21822;SDS011;11074;48.596;9.238;2023-04-08T14:20:00;13.10;;;10.07;;
21822;SDS011;11074;48.596;9.238;2023-04-08T14:22:26;13.55;;;10.40;;
21822;SDS011;11074;48.596;9.238;2023-04-08T14:24:52;12.20;;;9.48;;
21822;SDS011;11074;48.596;9.238;2023-04-08T14:27:17;12.77;;;10.35;;
21822;SDS011;11074;48.596;9.238;2023-04-08T14:29:43;14.25;;;10.20;;
21822;SDS011;11074;48.596;9.238;2023-04-08T14:32:09;13.60;;;10.07;;
21822;SDS011;11074;48.596;9.238;2023-04-08T14:34:35;12.23;;;9.95;;
21822;SDS011;11074;48.596;9.238;2023-04-08T14:37:01;14.18;;;9.85;;
21822;SDS011;11074;48.596;9.238;2023-04-08T14:39:27;11.13;;;9.10;;